Bad Sobernheim-Domberg Airport EDRS

Flugplatz Daten

Name: Bad Sobernheim-Domberg Airport

Ident: EDRS

Lat: 49,79083252

Long: 7,666110992

Platzhöhe: 810 ft

IataCode:

City: Bad Sobernheim

Metar

2021/04/12 10:50
ENBS 121050Z 27027KT CAVOK M01/M05 Q1014 REDRSN

Taf

Gewünschte Webcam nicht vorhanden? Dann fügen Sie eine hinzu. Sie wird dann so schnell wie möglich freigeschaltet
Url: Title: